createdAt,value
2024-05-09T00:00:40.713Z,9.83
2024-05-09T00:03:10.073Z,9.73
2024-05-09T00:05:41.261Z,9.64
2024-05-09T00:08:09.517Z,9.60
2024-05-09T00:10:38.959Z,9.49
2024-05-09T00:13:07.387Z,9.34
2024-05-09T00:15:35.262Z,9.32
2024-05-09T00:18:03.170Z,9.27
2024-05-09T00:20:37.909Z,9.17
2024-05-09T00:23:10.605Z,9.06
2024-05-09T00:25:37.913Z,8.98
2024-05-09T00:28:05.628Z,8.94
2024-05-09T00:30:35.676Z,8.89
2024-05-09T00:33:11.019Z,8.86
2024-05-09T00:35:39.001Z,8.72
2024-05-09T00:38:06.024Z,8.71
2024-05-09T00:40:39.686Z,8.62
2024-05-09T00:43:13.581Z,8.53
2024-05-09T00:45:41.893Z,8.42
2024-05-09T00:48:10.705Z,8.38
2024-05-09T00:50:42.283Z,8.33
2024-05-09T00:53:14.116Z,8.25
2024-05-09T00:55:41.541Z,8.23
2024-05-09T00:58:10.546Z,8.16
2024-05-09T01:00:40.131Z,8.13
2024-05-09T01:03:12.409Z,8.10
2024-05-09T01:05:41.748Z,8.01
2024-05-09T01:08:10.414Z,7.93
2024-05-09T01:10:37.880Z,7.89
2024-05-09T01:13:05.676Z,7.82
2024-05-09T01:15:33.721Z,7.80
2024-05-09T01:18:04.038Z,7.77
2024-05-09T01:20:40.140Z,7.73
2024-05-09T01:23:10.701Z,7.67
2024-05-09T01:25:37.818Z,7.63
2024-05-09T01:28:04.960Z,7.50
2024-05-09T01:30:35.305Z,7.45
2024-05-09T01:33:09.606Z,7.49
2024-05-09T01:35:42.565Z,7.42
2024-05-09T01:38:16.681Z,7.42
2024-05-09T01:40:43.836Z,7.39
2024-05-09T01:43:11.839Z,7.33
2024-05-09T01:45:41.994Z,7.34
2024-05-09T01:48:09.644Z,7.34
2024-05-09T01:50:40.562Z,7.21
2024-05-09T01:53:10.583Z,7.21
2024-05-09T01:55:37.578Z,7.19
2024-05-09T01:58:08.295Z,7.11
2024-05-09T02:00:40.054Z,7.08
2024-05-09T02:03:15.866Z,7.05
2024-05-09T02:05:49.579Z,7.03
2024-05-09T02:08:20.951Z,7.04
2024-05-09T02:10:51.643Z,7.08
2024-05-09T02:13:18.554Z,7.04
2024-05-09T02:15:45.706Z,6.96
2024-05-09T02:18:13.142Z,6.91
2024-05-09T02:20:41.465Z,6.82
2024-05-09T02:23:08.962Z,6.85
2024-05-09T02:25:35.762Z,6.86
2024-05-09T02:28:02.775Z,6.83
2024-05-09T02:30:38.340Z,6.80
2024-05-09T02:33:09.863Z,6.78
2024-05-09T02:35:38.081Z,6.75
2024-05-09T02:38:05.326Z,6.78
2024-05-09T02:40:37.308Z,6.76
2024-05-09T02:43:07.849Z,6.77
2024-05-09T02:45:35.215Z,6.81
2024-05-09T02:48:02.309Z,6.79
2024-05-09T02:50:36.880Z,6.74
2024-05-09T02:53:12.774Z,6.75
2024-05-09T02:55:40.652Z,6.76
2024-05-09T02:58:07.776Z,6.67
2024-05-09T03:00:39.590Z,6.67
2024-05-09T03:03:13.728Z,6.72
2024-05-09T03:05:46.191Z,6.73
2024-05-09T03:08:13.589Z,6.76
2024-05-09T03:10:40.065Z,6.81
2024-05-09T03:13:07.738Z,6.86
2024-05-09T03:15:34.058Z,6.92
2024-05-09T03:18:00.929Z,7.01
2024-05-09T03:20:32.971Z,7.07
2024-05-09T03:23:01.228Z,7.13
2024-05-09T03:25:27.682Z,7.18
2024-05-09T03:27:54.435Z,7.28
2024-05-09T03:30:30.941Z,7.33
2024-05-09T03:33:14.942Z,7.43
2024-05-09T03:35:46.382Z,7.53
2024-05-09T03:38:12.959Z,7.54
2024-05-09T03:40:46.767Z,7.64
2024-05-09T03:43:13.821Z,7.68
2024-05-09T03:45:40.086Z,7.74
2024-05-09T03:48:07.266Z,7.81
2024-05-09T03:50:35.954Z,7.85
2024-05-09T03:53:03.504Z,7.87
2024-05-09T03:55:30.214Z,7.95
2024-05-09T03:57:56.669Z,8.01
2024-05-09T04:00:31.269Z,8.06
2024-05-09T04:03:05.086Z,8.08
2024-05-09T04:05:32.281Z,8.19
2024-05-09T04:07:58.902Z,8.25
2024-05-09T04:10:32.382Z,8.28
2024-05-09T04:13:00.580Z,8.31
2024-05-09T04:15:27.105Z,8.34
2024-05-09T04:17:53.708Z,8.38
2024-05-09T04:20:29.392Z,8.46
2024-05-09T04:23:04.510Z,8.51
2024-05-09T04:25:33.846Z,8.59
2024-05-09T04:28:00.188Z,8.60
2024-05-09T04:30:36.000Z,8.59
2024-05-09T04:33:06.383Z,8.67
2024-05-09T04:35:33.668Z,8.69
2024-05-09T04:38:00.194Z,8.74
2024-05-09T04:40:33.104Z,8.76
2024-05-09T04:43:06.191Z,8.82
2024-05-09T04:45:33.114Z,8.89
2024-05-09T04:48:00.222Z,8.92
2024-05-09T04:50:35.564Z,8.95
2024-05-09T04:53:06.231Z,9.02
2024-05-09T04:55:33.404Z,9.10
2024-05-09T04:58:00.634Z,9.06
2024-05-09T05:00:35.238Z,9.12
2024-05-09T05:03:09.747Z,9.12
2024-05-09T05:05:39.787Z,9.22
2024-05-09T05:08:11.593Z,9.28
2024-05-09T05:10:38.255Z,9.31
2024-05-09T05:13:19.870Z,9.38
2024-05-09T05:15:49.004Z,9.44
2024-05-09T05:18:16.549Z,9.44
2024-05-09T05:20:43.882Z,9.52
2024-05-09T05:23:12.597Z,9.65
2024-05-09T05:25:39.885Z,9.69
2024-05-09T05:28:07.446Z,9.75
2024-05-09T05:30:37.094Z,9.80
2024-05-09T05:33:10.678Z,9.86
2024-05-09T05:35:37.581Z,9.93
2024-05-09T05:38:06.270Z,10.05
2024-05-09T05:40:38.191Z,10.12
2024-05-09T05:43:08.150Z,10.17
2024-05-09T05:45:34.729Z,10.26
2024-05-09T05:48:03.833Z,10.32
2024-05-09T05:50:35.840Z,10.31
2024-05-09T05:53:10.935Z,10.28
2024-05-09T05:55:39.644Z,10.29
2024-05-09T05:58:10.688Z,10.35
2024-05-09T06:00:39.724Z,10.36
2024-05-09T06:03:09.062Z,10.46
2024-05-09T06:05:38.155Z,10.54
2024-05-09T06:08:05.169Z,10.33
2024-05-09T06:10:38.072Z,10.39
2024-05-09T06:13:07.872Z,10.57
2024-05-09T06:15:34.797Z,10.58
2024-05-09T06:18:04.146Z,10.71
2024-05-09T06:20:36.524Z,10.79
2024-05-09T06:23:08.874Z,10.91
2024-05-09T06:25:36.057Z,11.02
2024-05-09T06:28:03.470Z,11.07
2024-05-09T06:30:38.380Z,11.15
2024-05-09T06:33:10.778Z,11.13
2024-05-09T06:35:39.316Z,11.23
2024-05-09T06:38:08.262Z,11.28
2024-05-09T06:40:38.417Z,11.37
2024-05-09T06:43:13.487Z,11.37
2024-05-09T06:45:40.486Z,11.35
2024-05-09T06:48:08.614Z,11.41
2024-05-09T06:50:39.247Z,11.56
2024-05-09T06:53:07.489Z,11.83
2024-05-09T06:55:34.344Z,12.11
2024-05-09T06:58:00.876Z,12.26
2024-05-09T07:00:35.235Z,12.40
2024-05-09T07:03:16.060Z,12.52
2024-05-09T07:05:46.270Z,12.62
2024-05-09T07:08:14.097Z,12.55
2024-05-09T07:10:41.332Z,12.65
2024-05-09T07:13:12.032Z,12.71
2024-05-09T07:15:39.856Z,12.78
2024-05-09T07:18:19.873Z,12.90
2024-05-09T07:20:48.397Z,12.95
2024-05-09T07:23:16.278Z,13.32
2024-05-09T07:25:44.029Z,13.59
2024-05-09T07:28:15.070Z,13.58
2024-05-09T07:30:42.228Z,13.61
2024-05-09T07:33:09.058Z,13.51
2024-05-09T07:35:35.965Z,13.31
2024-05-09T07:38:02.857Z,13.39
2024-05-09T07:40:35.763Z,13.60
2024-05-09T07:43:04.392Z,13.90
2024-05-09T07:45:47.885Z,14.08
2024-05-09T07:52:38.293Z,14.40
2024-05-09T07:53:48.355Z,14.48
2024-05-09T07:56:19.175Z,14.76
2024-05-09T07:58:50.025Z,15.39
2024-05-09T08:01:16.931Z,16.47
2024-05-09T08:03:46.145Z,17.64
2024-05-09T08:06:12.813Z,17.58
2024-05-09T08:08:39.375Z,17.38
2024-05-09T08:11:06.209Z,17.68
2024-05-09T08:13:32.761Z,17.46
2024-05-09T08:15:59.346Z,17.66
2024-05-09T08:18:26.072Z,17.43
2024-05-09T08:20:52.758Z,17.05
2024-05-09T08:23:19.336Z,17.09
2024-05-09T08:25:45.836Z,17.00
2024-05-09T08:28:12.701Z,16.30
2024-05-09T08:30:39.642Z,17.09
2024-05-09T08:33:07.183Z,17.14
2024-05-09T08:35:35.391Z,16.93
2024-05-09T08:38:03.582Z,16.75
2024-05-09T08:40:36.100Z,17.14
2024-05-09T08:43:12.159Z,17.20
2024-05-09T08:45:42.384Z,17.60
2024-05-09T08:48:12.048Z,17.80
2024-05-09T08:50:41.151Z,18.20
2024-05-09T08:53:08.725Z,18.12
2024-05-09T08:55:38.146Z,18.10
2024-05-09T08:58:09.113Z,18.72
2024-05-09T09:00:39.034Z,18.81
2024-05-09T09:03:09.472Z,19.19
2024-05-09T09:05:40.040Z,19.23
2024-05-09T09:08:08.948Z,19.67
2024-05-09T09:10:39.466Z,19.76
2024-05-09T09:13:08.713Z,20.55
2024-05-09T09:15:49.118Z,20.61
2024-05-09T09:18:17.178Z,19.45
2024-05-09T09:20:44.847Z,19.45
2024-05-09T09:23:11.767Z,19.18
2024-05-09T09:25:42.164Z,19.46
2024-05-09T09:28:10.059Z,20.18
2024-05-09T09:30:41.444Z,20.05
2024-05-09T09:33:09.813Z,19.37
2024-05-09T09:35:39.633Z,18.10
2024-05-09T09:38:11.184Z,17.87
2024-05-09T09:40:46.624Z,18.32
2024-05-09T09:43:21.668Z,17.87
2024-05-09T09:45:50.731Z,18.72
2024-05-09T09:48:17.920Z,19.04
2024-05-09T09:50:44.998Z,19.31
2024-05-09T09:53:12.372Z,19.30
2024-05-09T09:55:39.643Z,19.02
2024-05-09T09:58:08.763Z,18.96
2024-05-09T10:00:37.489Z,19.10
2024-05-09T10:03:04.647Z,19.71
2024-05-09T10:05:32.775Z,20.07
2024-05-09T10:08:04.225Z,20.23
2024-05-09T10:10:34.090Z,20.35
2024-05-09T10:13:04.914Z,20.35
2024-05-09T10:15:47.615Z,20.15
2024-05-09T10:18:14.983Z,20.11
2024-05-09T10:20:45.932Z,19.41
2024-05-09T10:23:25.726Z,19.74
2024-05-09T10:26:02.390Z,20.21
2024-05-09T10:28:30.371Z,19.78
2024-05-09T10:31:16.292Z,20.11
2024-05-09T10:33:51.371Z,20.25
2024-05-09T10:36:23.014Z,19.95
2024-05-09T10:38:50.889Z,18.99
2024-05-09T10:41:17.961Z,19.07
2024-05-09T10:43:44.247Z,19.92
2024-05-09T10:46:11.822Z,20.18
2024-05-09T10:48:41.778Z,20.30
2024-05-09T10:51:08.354Z,20.54
2024-05-09T10:53:45.673Z,20.30
2024-05-09T10:56:18.235Z,20.70
2024-05-09T10:58:44.599Z,21.24
2024-05-09T11:01:12.464Z,21.39
2024-05-09T11:03:39.902Z,21.43
2024-05-09T11:06:07.469Z,21.37
2024-05-09T11:08:35.436Z,21.26
2024-05-09T11:11:05.979Z,21.18
2024-05-09T11:13:35.481Z,21.53
2024-05-09T11:16:03.222Z,21.05
2024-05-09T11:18:34.836Z,20.75
2024-05-09T11:21:11.484Z,20.24
2024-05-09T11:23:38.039Z,19.93
2024-05-09T11:26:05.510Z,19.51
2024-05-09T11:28:32.335Z,19.73
2024-05-09T11:31:09.844Z,19.55
2024-05-09T11:33:42.770Z,20.07
2024-05-09T11:36:09.766Z,19.51
2024-05-09T11:38:36.594Z,18.91
2024-05-09T11:41:04.610Z,18.43
2024-05-09T11:43:31.338Z,18.89
2024-05-09T11:45:58.206Z,18.81
2024-05-09T11:48:25.995Z,18.66
2024-05-09T11:50:54.558Z,18.91
2024-05-09T11:55:48.694Z,19.98
2024-05-09T11:58:16.734Z,20.62
2024-05-09T12:00:44.149Z,20.73
2024-05-09T12:03:11.299Z,20.47
2024-05-09T12:05:38.199Z,20.45
2024-05-09T12:08:05.794Z,20.36
2024-05-09T12:10:35.259Z,20.21
2024-05-09T12:13:05.831Z,19.91
2024-05-09T12:15:35.850Z,19.56
2024-05-09T12:18:04.200Z,19.31
2024-05-09T12:20:37.297Z,19.00
2024-05-09T12:23:08.903Z,18.78
2024-05-09T12:25:37.355Z,19.34
2024-05-09T12:28:04.458Z,19.55
2024-05-09T12:30:37.253Z,19.65
2024-05-09T12:33:12.940Z,19.69
2024-05-09T12:35:44.000Z,19.69
2024-05-09T12:38:14.127Z,19.99
2024-05-09T12:40:41.471Z,19.74
2024-05-09T12:43:09.411Z,19.91
2024-05-09T12:45:37.923Z,20.17
2024-05-09T12:48:07.696Z,20.25
2024-05-09T12:50:35.093Z,21.00
2024-05-09T12:53:03.628Z,21.27
2024-05-09T12:55:37.356Z,21.35
2024-05-09T12:58:12.142Z,21.20
2024-05-09T13:00:41.669Z,21.23
2024-05-09T13:03:08.582Z,21.08
2024-05-09T13:05:35.390Z,21.22
2024-05-09T13:08:03.584Z,20.69
2024-05-09T13:10:32.813Z,20.61
2024-05-09T13:13:01.795Z,20.95
2024-05-09T13:15:39.747Z,20.95
2024-05-09T13:18:07.345Z,21.24
2024-05-09T13:20:36.320Z,21.20
2024-05-09T13:23:06.090Z,21.40
2024-05-09T13:25:34.233Z,20.33
2024-05-09T13:28:01.056Z,20.20
2024-05-09T13:30:35.777Z,20.31
2024-05-09T13:33:07.487Z,20.22
2024-05-09T13:35:35.487Z,19.99
2024-05-09T13:38:04.465Z,19.92
2024-05-09T13:40:34.625Z,20.06
2024-05-09T13:43:06.501Z,20.48
2024-05-09T13:45:34.946Z,20.09
2024-05-09T13:48:03.291Z,19.53
2024-05-09T13:50:34.508Z,19.90
2024-05-09T13:53:04.329Z,20.16
2024-05-09T13:55:31.181Z,20.03
2024-05-09T13:57:58.067Z,20.17
2024-05-09T14:02:54.659Z,21.05
2024-05-09T14:05:21.756Z,20.98
2024-05-09T14:07:48.495Z,20.93
2024-05-09T14:10:22.938Z,20.82
2024-05-09T14:12:55.275Z,21.53
2024-05-09T14:15:22.047Z,21.54
2024-05-09T14:17:48.820Z,21.40
2024-05-09T14:20:23.806Z,21.41
2024-05-09T14:23:00.884Z,21.33
2024-05-09T14:25:31.329Z,21.44
2024-05-09T14:27:58.287Z,21.74
2024-05-09T14:30:33.737Z,21.87
2024-05-09T14:33:04.354Z,21.60
2024-05-09T14:35:31.110Z,20.66
2024-05-09T14:37:58.479Z,20.76
2024-05-09T14:43:01.092Z,20.29
2024-05-09T14:45:29.522Z,20.27
2024-05-09T14:47:56.495Z,20.47
2024-05-09T14:50:28.311Z,20.78
2024-05-09T14:53:02.176Z,20.43
2024-05-09T14:55:29.071Z,20.76
2024-05-09T14:57:55.800Z,20.50
2024-05-09T15:00:28.679Z,20.97
2024-05-09T15:03:00.060Z,21.12
2024-05-09T15:05:26.912Z,20.85
2024-05-09T15:07:53.706Z,20.99
2024-05-09T15:10:27.063Z,21.23
2024-05-09T15:13:00.934Z,21.09
2024-05-09T15:15:27.901Z,21.35
2024-05-09T15:17:55.058Z,21.01
2024-05-09T15:20:30.971Z,20.69
2024-05-09T15:23:02.483Z,20.49
2024-05-09T15:25:29.601Z,20.64
2024-05-09T15:27:56.844Z,20.10
2024-05-09T15:30:30.922Z,20.20
2024-05-09T15:33:02.676Z,20.38
2024-05-09T15:35:29.578Z,20.19
2024-05-09T15:37:56.634Z,20.00
2024-05-09T15:40:34.381Z,19.84
2024-05-09T15:43:06.403Z,19.63
2024-05-09T15:45:33.624Z,19.70
2024-05-09T15:48:02.118Z,19.84
2024-05-09T15:50:36.736Z,19.91
2024-05-09T15:53:08.549Z,19.42
2024-05-09T15:55:36.120Z,19.79
2024-05-09T15:58:03.845Z,19.67
2024-05-09T16:00:38.352Z,19.92
2024-05-09T16:03:13.134Z,19.96
2024-05-09T16:05:42.654Z,19.46
2024-05-09T16:08:09.687Z,19.51
2024-05-09T16:10:41.361Z,19.61
2024-05-09T16:13:10.218Z,19.47
2024-05-09T16:15:36.901Z,19.48
2024-05-09T16:18:03.856Z,19.47
2024-05-09T16:20:38.840Z,19.39
2024-05-09T16:23:08.913Z,19.31
2024-05-09T16:25:36.561Z,19.35
2024-05-09T16:28:07.388Z,19.50
2024-05-09T16:30:40.446Z,19.35
2024-05-09T16:33:07.626Z,19.07
2024-05-09T16:35:35.388Z,19.17
2024-05-09T16:38:03.225Z,19.02
2024-05-09T16:40:36.876Z,18.96
2024-05-09T16:43:07.015Z,18.95
2024-05-09T16:45:34.674Z,18.74
2024-05-09T16:48:02.262Z,18.71
2024-05-09T16:50:33.291Z,18.76
2024-05-09T16:53:06.359Z,18.70
2024-05-09T16:55:35.038Z,18.73
2024-05-09T16:58:02.755Z,18.75
2024-05-09T17:00:38.338Z,18.71
2024-05-09T17:03:09.917Z,18.60
2024-05-09T17:05:37.058Z,18.51
2024-05-09T17:08:04.040Z,18.46
2024-05-09T17:10:33.634Z,18.35
2024-05-09T17:13:06.327Z,18.22
2024-05-09T17:15:34.190Z,18.28
2024-05-09T17:18:01.051Z,18.31
2024-05-09T17:20:33.070Z,18.18
2024-05-09T17:23:02.971Z,18.20
2024-05-09T17:25:29.325Z,18.16
2024-05-09T17:27:55.807Z,18.12
2024-05-09T17:30:29.336Z,18.04
2024-05-09T17:33:02.964Z,17.97
2024-05-09T17:35:30.626Z,17.86
2024-05-09T17:37:57.794Z,17.92
2024-05-09T17:40:31.403Z,17.92
2024-05-09T17:43:02.289Z,17.88
2024-05-09T17:45:28.956Z,17.78
2024-05-09T17:47:55.836Z,17.77
2024-05-09T17:50:30.208Z,17.70
2024-05-09T17:53:01.154Z,17.62
2024-05-09T17:55:28.038Z,17.59
2024-05-09T17:57:54.747Z,17.42
2024-05-09T18:00:29.531Z,17.43
2024-05-09T18:03:04.176Z,17.41
2024-05-09T18:05:31.199Z,17.23
2024-05-09T18:07:58.014Z,17.24
2024-05-09T18:10:32.537Z,17.29
2024-05-09T18:13:03.341Z,17.24
2024-05-09T18:15:29.982Z,16.91
2024-05-09T18:17:59.369Z,16.97
2024-05-09T18:20:36.648Z,16.91
2024-05-09T18:23:08.878Z,16.95
2024-05-09T18:25:35.548Z,16.84
2024-05-09T18:28:08.240Z,16.76
2024-05-09T18:30:36.742Z,16.67
2024-05-09T18:33:06.316Z,16.60
2024-05-09T18:35:34.402Z,16.50
2024-05-09T18:38:00.832Z,16.43
2024-05-09T18:40:32.974Z,16.35
2024-05-09T18:43:03.800Z,16.32
2024-05-09T18:45:30.803Z,16.18
2024-05-09T18:47:57.711Z,16.08
2024-05-09T18:50:32.221Z,15.98
2024-05-09T18:53:05.332Z,15.87
2024-05-09T18:55:31.861Z,15.77
2024-05-09T18:57:58.535Z,15.72
2024-05-09T19:00:33.515Z,15.61
2024-05-09T19:03:04.430Z,15.45
2024-05-09T19:05:31.890Z,15.37
2024-05-09T19:07:59.171Z,15.17
2024-05-09T19:10:28.708Z,15.08
2024-05-09T19:12:58.811Z,15.01
2024-05-09T19:15:25.370Z,14.88
2024-05-09T19:17:51.896Z,14.81
2024-05-09T19:20:25.280Z,14.71
2024-05-09T19:22:58.198Z,14.58
2024-05-09T19:25:24.856Z,14.49
2024-05-09T19:27:51.453Z,14.39
2024-05-09T19:30:28.914Z,14.25
2024-05-09T19:33:02.953Z,14.13
2024-05-09T19:35:29.631Z,14.10
2024-05-09T19:37:56.261Z,14.00
2024-05-09T19:40:29.025Z,13.94
2024-05-09T19:42:58.816Z,13.82
2024-05-09T19:45:25.454Z,13.78
2024-05-09T19:47:52.547Z,13.66
2024-05-09T19:50:26.728Z,13.55
2024-05-09T19:52:59.702Z,13.41
2024-05-09T19:55:26.312Z,13.42
2024-05-09T19:57:52.880Z,13.40
2024-05-09T20:00:26.190Z,13.34
2024-05-09T20:02:59.026Z,13.21
2024-05-09T20:05:26.250Z,13.15
2024-05-09T20:07:53.387Z,13.15
2024-05-09T20:10:23.954Z,13.05
2024-05-09T20:12:55.816Z,12.96
2024-05-09T20:15:22.311Z,12.93
2024-05-09T20:17:49.027Z,12.88
2024-05-09T20:20:27.296Z,12.88
2024-05-09T20:22:59.845Z,12.83
2024-05-09T20:25:29.533Z,12.75
2024-05-09T20:27:56.150Z,12.71
2024-05-09T20:30:31.473Z,12.64
2024-05-09T20:33:00.915Z,12.57
2024-05-09T20:35:31.188Z,12.49
2024-05-09T20:37:59.014Z,12.45
2024-05-09T20:40:31.624Z,12.41
2024-05-09T20:43:02.225Z,12.34
2024-05-09T20:45:28.922Z,12.33
2024-05-09T20:47:55.883Z,12.31
2024-05-09T20:50:29.288Z,12.23
2024-05-09T20:53:03.608Z,12.17
2024-05-09T20:55:30.547Z,12.17
2024-05-09T20:57:57.535Z,12.08
2024-05-09T21:00:33.788Z,12.10
2024-05-09T21:03:05.847Z,12.03
2024-05-09T21:05:33.023Z,11.93
2024-05-09T21:07:59.719Z,11.83
2024-05-09T21:10:27.229Z,11.76
2024-05-09T21:12:56.410Z,11.69
2024-05-09T21:15:23.055Z,11.60
2024-05-09T21:17:49.694Z,11.60
2024-05-09T21:20:20.609Z,11.53
2024-05-09T21:22:51.050Z,11.53
2024-05-09T21:25:17.776Z,11.52
2024-05-09T21:27:44.591Z,11.47
2024-05-09T21:30:18.616Z,11.41
2024-05-09T21:32:54.187Z,11.32
2024-05-09T21:35:20.750Z,11.25
2024-05-09T21:37:47.184Z,11.20
2024-05-09T21:40:20.677Z,11.17
2024-05-09T21:42:51.876Z,11.14
2024-05-09T21:45:18.478Z,11.14
2024-05-09T21:47:45.235Z,11.09
2024-05-09T21:50:22.082Z,11.05
2024-05-09T21:52:50.047Z,11.00
2024-05-09T21:55:16.738Z,10.95
2024-05-09T21:57:43.485Z,10.93
2024-05-09T22:00:20.340Z,10.93
2024-05-09T22:02:51.744Z,10.91
2024-05-09T22:05:18.611Z,10.88
2024-05-09T22:07:45.197Z,10.84
2024-05-09T22:10:19.974Z,10.79
2024-05-09T22:12:55.011Z,10.79
2024-05-09T22:15:21.706Z,10.75
2024-05-09T22:17:48.455Z,10.76
2024-05-09T22:20:22.104Z,10.69
2024-05-09T22:22:55.461Z,10.68
2024-05-09T22:25:22.013Z,10.68
2024-05-09T22:27:51.709Z,10.64
2024-05-09T22:30:23.971Z,10.60
2024-05-09T22:32:57.853Z,10.60
2024-05-09T22:35:24.396Z,10.59
2024-05-09T22:37:50.990Z,10.53
2024-05-09T22:40:23.927Z,10.47
2024-05-09T22:42:55.895Z,10.50
2024-05-09T22:45:22.481Z,10.46
2024-05-09T22:47:49.210Z,10.45
2024-05-09T22:50:22.405Z,10.46
2024-05-09T22:52:52.926Z,10.39
2024-05-09T22:55:19.535Z,10.38
2024-05-09T22:57:46.202Z,10.32
2024-05-09T23:00:15.958Z,10.27
2024-05-09T23:02:42.962Z,10.21
2024-05-09T23:05:09.969Z,10.18
2024-05-09T23:07:36.777Z,10.20
2024-05-09T23:10:05.467Z,10.17
2024-05-09T23:12:34.943Z,10.16
2024-05-09T23:15:01.634Z,10.12
2024-05-09T23:17:28.108Z,10.06
2024-05-09T23:19:54.643Z,10.00
2024-05-09T23:22:21.256Z,10.05
2024-05-09T23:24:47.553Z,10.00
2024-05-09T23:27:14.192Z,9.98
2024-05-09T23:29:40.243Z,10.01
2024-05-09T23:32:08.783Z,10.05
2024-05-09T23:34:35.386Z,10.06
2024-05-09T23:37:01.682Z,10.00
2024-05-09T23:39:27.828Z,9.95
2024-05-09T23:41:53.932Z,9.92
2024-05-09T23:44:20.429Z,9.90
2024-05-09T23:46:46.893Z,9.83
2024-05-09T23:49:13.327Z,9.90
2024-05-09T23:51:39.710Z,9.89
2024-05-09T23:54:08.028Z,9.81
2024-05-09T23:56:34.521Z,9.78
2024-05-09T23:59:00.953Z,9.73
